New Bethlehem, Pennsylvania
Current Conditions -  °F | °C
As of 11:53 AM on Friday 19 Dec 2014 (Local Time) from KDUJ Reporting Station
Overcast Overcast  
Wind Chill: 17°   Ceiling: 1700
Heat Index: 27°   Visibility: 10mi
Dew Point: 21°   Wind: 12mph
Humidity: 78%   Direction: 310°NW
Pressure: 30.09"   Gusts: NA
Location:  41°N, 79.33°W
Report Text: KDUJ 191653Z AUTO 31010KT 10SM OVC017 M03/M06 A3009 RMK AO2 SLP212 T10281061
Loading
Personal Weather Stations






























Interactive Weather Map New forecast layout! Learn more

10-Day Weather Forecast

Advertisements
Track Severe Weather on mobile